sensor_id;sensor_type;location;lat;lon;timestamp;P1;durP1;ratioP1;P2;durP2;ratioP2
12788;SDS011;6458;42.710;23.192;2023-12-22T00:00:28;25.50;;;15.60;;
12788;SDS011;6458;42.710;23.192;2023-12-22T00:02:55;30.97;;;18.77;;
12788;SDS011;6458;42.710;23.192;2023-12-22T00:05:23;27.03;;;16.73;;
12788;SDS011;6458;42.710;23.192;2023-12-22T00:07:51;25.40;;;13.10;;
12788;SDS011;6458;42.710;23.192;2023-12-22T00:10:17;18.80;;;10.13;;
12788;SDS011;6458;42.710;23.192;2023-12-22T00:12:44;20.50;;;11.30;;
12788;SDS011;6458;42.710;23.192;2023-12-22T00:15:11;16.50;;;11.23;;
12788;SDS011;6458;42.710;23.192;2023-12-22T00:17:37;30.00;;;17.63;;
12788;SDS011;6458;42.710;23.192;2023-12-22T00:20:04;28.43;;;18.47;;
12788;SDS011;6458;42.710;23.192;2023-12-22T00:22:32;26.17;;;15.30;;
12788;SDS011;6458;42.710;23.192;2023-12-22T00:24:59;28.60;;;15.53;;
12788;SDS011;6458;42.710;23.192;2023-12-22T00:27:26;27.30;;;15.77;;
12788;SDS011;6458;42.710;23.192;2023-12-22T00:29:52;23.10;;;14.50;;
12788;SDS011;6458;42.710;23.192;2023-12-22T00:32:19;29.83;;;17.57;;
12788;SDS011;6458;42.710;23.192;2023-12-22T00:34:46;27.53;;;15.63;;
12788;SDS011;6458;42.710;23.192;2023-12-22T00:37:12;18.13;;;12.40;;
12788;SDS011;6458;42.710;23.192;2023-12-22T00:39:41;29.73;;;17.63;;
12788;SDS011;6458;42.710;23.192;2023-12-22T00:42:07;29.73;;;16.33;;
12788;SDS011;6458;42.710;23.192;2023-12-22T00:44:34;29.57;;;17.10;;
12788;SDS011;6458;42.710;23.192;2023-12-22T00:47:00;28.53;;;17.13;;
12788;SDS011;6458;42.710;23.192;2023-12-22T00:49:27;31.73;;;17.83;;
12788;SDS011;6458;42.710;23.192;2023-12-22T00:51:54;32.77;;;22.10;;
12788;SDS011;6458;42.710;23.192;2023-12-22T00:54:20;27.50;;;18.00;;
12788;SDS011;6458;42.710;23.192;2023-12-22T00:56:49;35.93;;;19.83;;
12788;SDS011;6458;42.710;23.192;2023-12-22T00:59:15;29.40;;;18.27;;
12788;SDS011;6458;42.710;23.192;2023-12-22T01:01:42;36.97;;;17.73;;
12788;SDS011;6458;42.710;23.192;2023-12-22T01:04:09;38.43;;;18.17;;
12788;SDS011;6458;42.710;23.192;2023-12-22T01:06:36;28.70;;;17.97;;
12788;SDS011;6458;42.710;23.192;2023-12-22T01:09:03;35.47;;;20.10;;
12788;SDS011;6458;42.710;23.192;2023-12-22T01:11:30;30.37;;;18.17;;
12788;SDS011;6458;42.710;23.192;2023-12-22T01:13:58;30.23;;;17.90;;
12788;SDS011;6458;42.710;23.192;2023-12-22T01:16:25;30.67;;;17.17;;
12788;SDS011;6458;42.710;23.192;2023-12-22T01:18:52;27.77;;;19.30;;
12788;SDS011;6458;42.710;23.192;2023-12-22T01:21:18;29.80;;;19.70;;
12788;SDS011;6458;42.710;23.192;2023-12-22T01:23:45;33.70;;;18.90;;
12788;SDS011;6458;42.710;23.192;2023-12-22T01:26:12;34.90;;;18.40;;
12788;SDS011;6458;42.710;23.192;2023-12-22T01:28:39;27.70;;;17.40;;
12788;SDS011;6458;42.710;23.192;2023-12-22T01:31:07;27.17;;;17.07;;
12788;SDS011;6458;42.710;23.192;2023-12-22T01:33:34;29.57;;;18.80;;
12788;SDS011;6458;42.710;23.192;2023-12-22T01:36:00;31.90;;;19.30;;
12788;SDS011;6458;42.710;23.192;2023-12-22T01:38:28;27.67;;;17.00;;
12788;SDS011;6458;42.710;23.192;2023-12-22T01:40:54;26.80;;;16.43;;
12788;SDS011;6458;42.710;23.192;2023-12-22T01:43:21;27.87;;;17.87;;
12788;SDS011;6458;42.710;23.192;2023-12-22T01:45:49;29.93;;;18.10;;
12788;SDS011;6458;42.710;23.192;2023-12-22T01:48:17;27.23;;;16.60;;
12788;SDS011;6458;42.710;23.192;2023-12-22T01:50:44;25.43;;;16.00;;
12788;SDS011;6458;42.710;23.192;2023-12-22T01:53:10;27.53;;;16.90;;
12788;SDS011;6458;42.710;23.192;2023-12-22T01:55:37;19.30;;;12.47;;
12788;SDS011;6458;42.710;23.192;2023-12-22T01:58:04;24.87;;;14.93;;
12788;SDS011;6458;42.710;23.192;2023-12-22T02:00:31;19.17;;;11.73;;
12788;SDS011;6458;42.710;23.192;2023-12-22T02:02:57;13.93;;;9.07;;
12788;SDS011;6458;42.710;23.192;2023-12-22T02:05:26;10.67;;;8.33;;
12788;SDS011;6458;42.710;23.192;2023-12-22T02:07:54;8.93;;;6.20;;
12788;SDS011;6458;42.710;23.192;2023-12-22T02:10:21;7.60;;;6.03;;
12788;SDS011;6458;42.710;23.192;2023-12-22T02:12:48;5.03;;;4.30;;
12788;SDS011;6458;42.710;23.192;2023-12-22T02:15:15;5.60;;;5.03;;
12788;SDS011;6458;42.710;23.192;2023-12-22T02:17:43;4.53;;;4.23;;
12788;SDS011;6458;42.710;23.192;2023-12-22T02:20:10;6.77;;;3.83;;
12788;SDS011;6458;42.710;23.192;2023-12-22T02:22:39;5.63;;;4.67;;
12788;SDS011;6458;42.710;23.192;2023-12-22T02:25:06;4.00;;;3.67;;
12788;SDS011;6458;42.710;23.192;2023-12-22T02:27:33;10.47;;;4.47;;
12788;SDS011;6458;42.710;23.192;2023-12-22T02:30:02;4.37;;;3.97;;
12788;SDS011;6458;42.710;23.192;2023-12-22T02:32:30;4.13;;;3.87;;
12788;SDS011;6458;42.710;23.192;2023-12-22T02:34:57;4.83;;;4.13;;
12788;SDS011;6458;42.710;23.192;2023-12-22T02:37:24;11.63;;;8.50;;
12788;SDS011;6458;42.710;23.192;2023-12-22T02:39:54;4.90;;;4.50;;
12788;SDS011;6458;42.710;23.192;2023-12-22T02:42:21;3.00;;;2.70;;
12788;SDS011;6458;42.710;23.192;2023-12-22T02:44:55;3.17;;;3.00;;
12788;SDS011;6458;42.710;23.192;2023-12-22T02:47:21;4.10;;;3.80;;
12788;SDS011;6458;42.710;23.192;2023-12-22T02:49:48;4.93;;;3.87;;
12788;SDS011;6458;42.710;23.192;2023-12-22T02:52:15;4.07;;;3.73;;
12788;SDS011;6458;42.710;23.192;2023-12-22T02:54:41;14.77;;;10.87;;
12788;SDS011;6458;42.710;23.192;2023-12-22T02:57:09;16.50;;;11.63;;
12788;SDS011;6458;42.710;23.192;2023-12-22T02:59:36;12.50;;;8.80;;
12788;SDS011;6458;42.710;23.192;2023-12-22T03:02:03;6.17;;;4.23;;
12788;SDS011;6458;42.710;23.192;2023-12-22T03:04:30;3.27;;;3.07;;
12788;SDS011;6458;42.710;23.192;2023-12-22T03:06:56;3.03;;;2.50;;
12788;SDS011;6458;42.710;23.192;2023-12-22T03:09:23;2.97;;;2.77;;
12788;SDS011;6458;42.710;23.192;2023-12-22T03:11:50;10.13;;;8.07;;
12788;SDS011;6458;42.710;23.192;2023-12-22T03:14:21;15.57;;;10.63;;
12788;SDS011;6458;42.710;23.192;2023-12-22T03:16:47;17.83;;;11.17;;
12788;SDS011;6458;42.710;23.192;2023-12-22T03:19:14;18.70;;;11.87;;
12788;SDS011;6458;42.710;23.192;2023-12-22T03:21:41;12.83;;;9.60;;
12788;SDS011;6458;42.710;23.192;2023-12-22T03:24:07;17.30;;;11.40;;
12788;SDS011;6458;42.710;23.192;2023-12-22T03:26:34;17.73;;;11.67;;
12788;SDS011;6458;42.710;23.192;2023-12-22T03:29:01;18.20;;;11.97;;
12788;SDS011;6458;42.710;23.192;2023-12-22T03:31:29;16.20;;;11.67;;
12788;SDS011;6458;42.710;23.192;2023-12-22T03:33:55;15.50;;;11.27;;
12788;SDS011;6458;42.710;23.192;2023-12-22T03:36:22;20.50;;;13.27;;
12788;SDS011;6458;42.710;23.192;2023-12-22T03:38:49;20.10;;;11.93;;
12788;SDS011;6458;42.710;23.192;2023-12-22T03:41:15;10.83;;;9.53;;
12788;SDS011;6458;42.710;23.192;2023-12-22T03:43:42;18.20;;;11.70;;
12788;SDS011;6458;42.710;23.192;2023-12-22T03:46:09;16.33;;;12.63;;
12788;SDS011;6458;42.710;23.192;2023-12-22T03:48:37;21.53;;;13.03;;
12788;SDS011;6458;42.710;23.192;2023-12-22T03:51:04;22.80;;;12.67;;
12788;SDS011;6458;42.710;23.192;2023-12-22T03:53:31;20.60;;;12.93;;
12788;SDS011;6458;42.710;23.192;2023-12-22T03:55:57;23.23;;;13.97;;
12788;SDS011;6458;42.710;23.192;2023-12-22T03:58:24;23.33;;;12.33;;
12788;SDS011;6458;42.710;23.192;2023-12-22T04:00:51;19.63;;;13.10;;
12788;SDS011;6458;42.710;23.192;2023-12-22T04:03:18;24.47;;;13.87;;
12788;SDS011;6458;42.710;23.192;2023-12-22T04:05:46;25.00;;;13.70;;
12788;SDS011;6458;42.710;23.192;2023-12-22T04:08:12;20.13;;;12.63;;
12788;SDS011;6458;42.710;23.192;2023-12-22T04:10:39;21.70;;;12.97;;
12788;SDS011;6458;42.710;23.192;2023-12-22T04:13:06;21.07;;;13.53;;
12788;SDS011;6458;42.710;23.192;2023-12-22T04:15:32;21.93;;;12.53;;
12788;SDS011;6458;42.710;23.192;2023-12-22T04:17:59;22.10;;;13.57;;
12788;SDS011;6458;42.710;23.192;2023-12-22T04:20:26;26.80;;;14.40;;
12788;SDS011;6458;42.710;23.192;2023-12-22T04:22:54;24.40;;;13.87;;
12788;SDS011;6458;42.710;23.192;2023-12-22T04:25:21;25.07;;;14.33;;
12788;SDS011;6458;42.710;23.192;2023-12-22T04:27:49;24.87;;;13.70;;
12788;SDS011;6458;42.710;23.192;2023-12-22T04:30:16;16.43;;;11.53;;
12788;SDS011;6458;42.710;23.192;2023-12-22T04:32:43;15.67;;;11.63;;
12788;SDS011;6458;42.710;23.192;2023-12-22T04:35:10;13.27;;;8.83;;
12788;SDS011;6458;42.710;23.192;2023-12-22T04:37:36;6.60;;;6.10;;
12788;SDS011;6458;42.710;23.192;2023-12-22T04:40:05;8.93;;;5.40;;
12788;SDS011;6458;42.710;23.192;2023-12-22T04:42:32;10.50;;;6.87;;
12788;SDS011;6458;42.710;23.192;2023-12-22T04:44:58;10.83;;;7.97;;
12788;SDS011;6458;42.710;23.192;2023-12-22T04:47:25;5.50;;;5.00;;
12788;SDS011;6458;42.710;23.192;2023-12-22T04:49:52;6.10;;;5.10;;
12788;SDS011;6458;42.710;23.192;2023-12-22T04:52:18;6.77;;;4.23;;
12788;SDS011;6458;42.710;23.192;2023-12-22T04:54:45;4.97;;;4.13;;
12788;SDS011;6458;42.710;23.192;2023-12-22T04:57:14;4.40;;;4.10;;
12788;SDS011;6458;42.710;23.192;2023-12-22T04:59:40;3.90;;;3.50;;
12788;SDS011;6458;42.710;23.192;2023-12-22T05:02:07;4.27;;;3.03;;
12788;SDS011;6458;42.710;23.192;2023-12-22T05:04:34;3.70;;;3.40;;
12788;SDS011;6458;42.710;23.192;2023-12-22T05:07:00;3.23;;;3.03;;
12788;SDS011;6458;42.710;23.192;2023-12-22T05:09:31;3.77;;;3.47;;
12788;SDS011;6458;42.710;23.192;2023-12-22T05:11:58;4.00;;;3.70;;
12788;SDS011;6458;42.710;23.192;2023-12-22T05:14:26;3.27;;;2.97;;
12788;SDS011;6458;42.710;23.192;2023-12-22T05:16:53;3.23;;;3.13;;
12788;SDS011;6458;42.710;23.192;2023-12-22T05:19:20;3.83;;;3.53;;
12788;SDS011;6458;42.710;23.192;2023-12-22T05:21:47;3.10;;;2.80;;
12788;SDS011;6458;42.710;23.192;2023-12-22T05:24:14;3.13;;;2.93;;
12788;SDS011;6458;42.710;23.192;2023-12-22T05:26:41;2.17;;;2.10;;
12788;SDS011;6458;42.710;23.192;2023-12-22T05:29:08;4.37;;;3.20;;
12788;SDS011;6458;42.710;23.192;2023-12-22T05:31:36;3.03;;;2.93;;
12788;SDS011;6458;42.710;23.192;2023-12-22T05:34:06;3.50;;;3.30;;
12788;SDS011;6458;42.710;23.192;2023-12-22T05:36:35;2.90;;;2.80;;
12788;SDS011;6458;42.710;23.192;2023-12-22T05:39:02;2.63;;;2.53;;
12788;SDS011;6458;42.710;23.192;2023-12-22T05:41:28;3.60;;;3.30;;
12788;SDS011;6458;42.710;23.192;2023-12-22T05:43:55;3.17;;;2.87;;
12788;SDS011;6458;42.710;23.192;2023-12-22T05:46:22;3.43;;;3.13;;
12788;SDS011;6458;42.710;23.192;2023-12-22T05:48:50;4.30;;;4.00;;
12788;SDS011;6458;42.710;23.192;2023-12-22T05:51:16;3.50;;;3.30;;
12788;SDS011;6458;42.710;23.192;2023-12-22T05:53:43;3.00;;;2.80;;
12788;SDS011;6458;42.710;23.192;2023-12-22T05:56:16;3.53;;;3.33;;
12788;SDS011;6458;42.710;23.192;2023-12-22T05:58:43;4.13;;;3.73;;
12788;SDS011;6458;42.710;23.192;2023-12-22T06:01:13;3.70;;;3.40;;
12788;SDS011;6458;42.710;23.192;2023-12-22T06:03:40;3.63;;;3.33;;
12788;SDS011;6458;42.710;23.192;2023-12-22T06:06:08;3.00;;;2.90;;
12788;SDS011;6458;42.710;23.192;2023-12-22T06:08:35;3.30;;;3.10;;
12788;SDS011;6458;42.710;23.192;2023-12-22T06:11:03;3.87;;;3.57;;
12788;SDS011;6458;42.710;23.192;2023-12-22T06:13:30;3.57;;;3.30;;
12788;SDS011;6458;42.710;23.192;2023-12-22T06:15:56;4.23;;;3.30;;
12788;SDS011;6458;42.710;23.192;2023-12-22T06:18:23;4.27;;;3.20;;
12788;SDS011;6458;42.710;23.192;2023-12-22T06:20:50;3.63;;;3.33;;
12788;SDS011;6458;42.710;23.192;2023-12-22T06:23:18;3.70;;;3.50;;
12788;SDS011;6458;42.710;23.192;2023-12-22T06:25:45;2.97;;;2.77;;
12788;SDS011;6458;42.710;23.192;2023-12-22T06:28:13;3.37;;;3.27;;
12788;SDS011;6458;42.710;23.192;2023-12-22T06:30:42;3.80;;;3.47;;
12788;SDS011;6458;42.710;23.192;2023-12-22T06:33:09;3.93;;;3.73;;
12788;SDS011;6458;42.710;23.192;2023-12-22T06:35:36;3.57;;;3.30;;
12788;SDS011;6458;42.710;23.192;2023-12-22T06:38:03;4.30;;;4.00;;
12788;SDS011;6458;42.710;23.192;2023-12-22T06:40:33;3.33;;;3.13;;
12788;SDS011;6458;42.710;23.192;2023-12-22T06:43:00;3.10;;;2.90;;
12788;SDS011;6458;42.710;23.192;2023-12-22T06:45:27;3.53;;;3.33;;
12788;SDS011;6458;42.710;23.192;2023-12-22T06:47:54;3.37;;;3.17;;
12788;SDS011;6458;42.710;23.192;2023-12-22T06:50:21;4.57;;;3.57;;
12788;SDS011;6458;42.710;23.192;2023-12-22T06:52:48;3.60;;;3.33;;
12788;SDS011;6458;42.710;23.192;2023-12-22T06:55:17;3.00;;;2.90;;
12788;SDS011;6458;42.710;23.192;2023-12-22T06:57:45;2.80;;;2.70;;
12788;SDS011;6458;42.710;23.192;2023-12-22T07:00:13;3.40;;;3.20;;
12788;SDS011;6458;42.710;23.192;2023-12-22T07:02:39;3.37;;;3.13;;
12788;SDS011;6458;42.710;23.192;2023-12-22T07:07:51;3.40;;;3.20;;
12788;SDS011;6458;42.710;23.192;2023-12-22T07:10:21;3.63;;;3.37;;
12788;SDS011;6458;42.710;23.192;2023-12-22T07:12:57;3.50;;;3.30;;
12788;SDS011;6458;42.710;23.192;2023-12-22T07:15:24;3.43;;;3.23;;
12788;SDS011;6458;42.710;23.192;2023-12-22T07:17:51;4.07;;;3.63;;
12788;SDS011;6458;42.710;23.192;2023-12-22T07:20:18;3.63;;;3.43;;
12788;SDS011;6458;42.710;23.192;2023-12-22T07:22:45;5.03;;;4.63;;
12788;SDS011;6458;42.710;23.192;2023-12-22T07:25:11;4.60;;;4.30;;
12788;SDS011;6458;42.710;23.192;2023-12-22T07:27:38;4.50;;;3.80;;
12788;SDS011;6458;42.710;23.192;2023-12-22T07:30:07;4.00;;;3.60;;
12788;SDS011;6458;42.710;23.192;2023-12-22T07:32:36;4.10;;;3.80;;
12788;SDS011;6458;42.710;23.192;2023-12-22T07:35:03;3.90;;;3.60;;
12788;SDS011;6458;42.710;23.192;2023-12-22T07:37:30;3.47;;;3.27;;
12788;SDS011;6458;42.710;23.192;2023-12-22T07:39:57;4.97;;;3.27;;
12788;SDS011;6458;42.710;23.192;2023-12-22T07:42:24;4.37;;;3.43;;
12788;SDS011;6458;42.710;23.192;2023-12-22T07:44:50;3.80;;;3.60;;
12788;SDS011;6458;42.710;23.192;2023-12-22T07:47:19;4.13;;;3.77;;
12788;SDS011;6458;42.710;23.192;2023-12-22T07:49:45;3.90;;;3.70;;
12788;SDS011;6458;42.710;23.192;2023-12-22T07:52:15;3.63;;;3.43;;
12788;SDS011;6458;42.710;23.192;2023-12-22T07:54:41;3.40;;;3.20;;
12788;SDS011;6458;42.710;23.192;2023-12-22T07:57:08;3.00;;;2.80;;
12788;SDS011;6458;42.710;23.192;2023-12-22T07:59:35;3.10;;;2.90;;
12788;SDS011;6458;42.710;23.192;2023-12-22T08:02:01;3.43;;;3.23;;
12788;SDS011;6458;42.710;23.192;2023-12-22T08:04:30;3.50;;;3.30;;
12788;SDS011;6458;42.710;23.192;2023-12-22T08:06:57;3.63;;;3.33;;
12788;SDS011;6458;42.710;23.192;2023-12-22T08:09:24;3.60;;;3.40;;
12788;SDS011;6458;42.710;23.192;2023-12-22T08:11:50;3.33;;;3.13;;
12788;SDS011;6458;42.710;23.192;2023-12-22T08:14:18;4.13;;;3.83;;
12788;SDS011;6458;42.710;23.192;2023-12-22T08:16:44;4.10;;;3.90;;
12788;SDS011;6458;42.710;23.192;2023-12-22T08:19:11;4.23;;;3.93;;
12788;SDS011;6458;42.710;23.192;2023-12-22T08:21:42;6.43;;;5.83;;
12788;SDS011;6458;42.710;23.192;2023-12-22T08:24:09;6.90;;;6.30;;
12788;SDS011;6458;42.710;23.192;2023-12-22T08:26:36;6.87;;;6.37;;
12788;SDS011;6458;42.710;23.192;2023-12-22T08:29:03;5.10;;;4.80;;
12788;SDS011;6458;42.710;23.192;2023-12-22T08:31:29;5.73;;;5.23;;
12788;SDS011;6458;42.710;23.192;2023-12-22T08:33:56;5.67;;;5.03;;
12788;SDS011;6458;42.710;23.192;2023-12-22T08:36:23;4.17;;;3.97;;
12788;SDS011;6458;42.710;23.192;2023-12-22T08:38:51;4.40;;;4.20;;
12788;SDS011;6458;42.710;23.192;2023-12-22T08:41:17;2.90;;;2.80;;
12788;SDS011;6458;42.710;23.192;2023-12-22T08:43:44;2.50;;;2.40;;
12788;SDS011;6458;42.710;23.192;2023-12-22T08:46:11;2.97;;;2.87;;
12788;SDS011;6458;42.710;23.192;2023-12-22T08:48:38;4.40;;;4.00;;
12788;SDS011;6458;42.710;23.192;2023-12-22T08:51:05;5.40;;;4.90;;
12788;SDS011;6458;42.710;23.192;2023-12-22T08:53:32;4.57;;;4.37;;
12788;SDS011;6458;42.710;23.192;2023-12-22T08:56:04;4.90;;;4.50;;
12788;SDS011;6458;42.710;23.192;2023-12-22T08:58:32;5.50;;;5.00;;
12788;SDS011;6458;42.710;23.192;2023-12-22T09:00:59;4.80;;;4.50;;
12788;SDS011;6458;42.710;23.192;2023-12-22T09:03:25;3.40;;;3.20;;
12788;SDS011;6458;42.710;23.192;2023-12-22T09:05:53;4.17;;;3.97;;
12788;SDS011;6458;42.710;23.192;2023-12-22T09:08:22;5.83;;;5.37;;
12788;SDS011;6458;42.710;23.192;2023-12-22T09:10:48;6.33;;;5.83;;
12788;SDS011;6458;42.710;23.192;2023-12-22T09:13:18;5.63;;;5.10;;
12788;SDS011;6458;42.710;23.192;2023-12-22T09:15:45;4.47;;;4.17;;
12788;SDS011;6458;42.710;23.192;2023-12-22T09:18:14;5.13;;;4.70;;
12788;SDS011;6458;42.710;23.192;2023-12-22T09:20:40;5.20;;;4.80;;
12788;SDS011;6458;42.710;23.192;2023-12-22T09:23:07;3.57;;;3.27;;
12788;SDS011;6458;42.710;23.192;2023-12-22T09:25:35;4.23;;;3.93;;
12788;SDS011;6458;42.710;23.192;2023-12-22T09:28:02;3.10;;;2.90;;
12788;SDS011;6458;42.710;23.192;2023-12-22T09:30:30;3.60;;;3.30;;
12788;SDS011;6458;42.710;23.192;2023-12-22T09:32:57;5.67;;;5.20;;
12788;SDS011;6458;42.710;23.192;2023-12-22T09:35:23;7.73;;;7.03;;
12788;SDS011;6458;42.710;23.192;2023-12-22T09:37:51;4.47;;;4.03;;
12788;SDS011;6458;42.710;23.192;2023-12-22T09:40:18;4.03;;;3.83;;
12788;SDS011;6458;42.710;23.192;2023-12-22T09:42:47;4.50;;;4.20;;
12788;SDS011;6458;42.710;23.192;2023-12-22T09:45:13;4.43;;;4.13;;
12788;SDS011;6458;42.710;23.192;2023-12-22T09:47:45;4.07;;;3.70;;
12788;SDS011;6458;42.710;23.192;2023-12-22T09:50:12;4.43;;;4.13;;
12788;SDS011;6458;42.710;23.192;2023-12-22T09:52:39;4.60;;;4.30;;
12788;SDS011;6458;42.710;23.192;2023-12-22T09:55:09;3.80;;;3.60;;
12788;SDS011;6458;42.710;23.192;2023-12-22T09:57:37;4.57;;;4.17;;
12788;SDS011;6458;42.710;23.192;2023-12-22T10:00:04;5.70;;;5.30;;
12788;SDS011;6458;42.710;23.192;2023-12-22T10:02:34;6.00;;;5.40;;
12788;SDS011;6458;42.710;23.192;2023-12-22T10:05:03;6.37;;;5.73;;
12788;SDS011;6458;42.710;23.192;2023-12-22T10:07:30;9.33;;;6.67;;
12788;SDS011;6458;42.710;23.192;2023-12-22T10:09:58;11.73;;;6.77;;
12788;SDS011;6458;42.710;23.192;2023-12-22T10:12:25;9.50;;;6.90;;
12788;SDS011;6458;42.710;23.192;2023-12-22T10:14:53;8.47;;;7.77;;
12788;SDS011;6458;42.710;23.192;2023-12-22T10:17:20;5.80;;;5.40;;
12788;SDS011;6458;42.710;23.192;2023-12-22T10:19:47;5.27;;;4.87;;
12788;SDS011;6458;42.710;23.192;2023-12-22T10:22:15;5.90;;;5.40;;
12788;SDS011;6458;42.710;23.192;2023-12-22T10:24:43;5.97;;;5.40;;
12788;SDS011;6458;42.710;23.192;2023-12-22T10:27:12;5.17;;;4.67;;
12788;SDS011;6458;42.710;23.192;2023-12-22T10:29:39;4.90;;;4.50;;
12788;SDS011;6458;42.710;23.192;2023-12-22T10:32:06;4.57;;;4.17;;
12788;SDS011;6458;42.710;23.192;2023-12-22T10:34:33;3.90;;;3.70;;
12788;SDS011;6458;42.710;23.192;2023-12-22T10:37:00;4.20;;;4.00;;
12788;SDS011;6458;42.710;23.192;2023-12-22T10:39:29;2.60;;;2.40;;
12788;SDS011;6458;42.710;23.192;2023-12-22T10:41:55;2.50;;;2.40;;
12788;SDS011;6458;42.710;23.192;2023-12-22T10:44:23;3.50;;;3.17;;
12788;SDS011;6458;42.710;23.192;2023-12-22T10:46:50;3.10;;;2.90;;
12788;SDS011;6458;42.710;23.192;2023-12-22T10:49:16;6.07;;;5.57;;
12788;SDS011;6458;42.710;23.192;2023-12-22T10:51:44;3.20;;;3.10;;
12788;SDS011;6458;42.710;23.192;2023-12-22T10:54:10;3.13;;;3.03;;
12788;SDS011;6458;42.710;23.192;2023-12-22T10:56:39;2.60;;;2.50;;
12788;SDS011;6458;42.710;23.192;2023-12-22T10:59:06;2.47;;;2.27;;
12788;SDS011;6458;42.710;23.192;2023-12-22T11:01:32;2.13;;;2.03;;
12788;SDS011;6458;42.710;23.192;2023-12-22T11:04:05;1.60;;;1.60;;
12788;SDS011;6458;42.710;23.192;2023-12-22T11:06:32;2.00;;;1.90;;
12788;SDS011;6458;42.710;23.192;2023-12-22T11:09:00;1.90;;;1.80;;
12788;SDS011;6458;42.710;23.192;2023-12-22T11:11:30;1.80;;;1.80;;
12788;SDS011;6458;42.710;23.192;2023-12-22T11:14:00;2.10;;;2.00;;
12788;SDS011;6458;42.710;23.192;2023-12-22T11:16:27;2.20;;;2.10;;
12788;SDS011;6458;42.710;23.192;2023-12-22T11:18:54;1.93;;;1.93;;
12788;SDS011;6458;42.710;23.192;2023-12-22T11:21:21;1.97;;;1.87;;
12788;SDS011;6458;42.710;23.192;2023-12-22T11:23:49;1.53;;;1.53;;
12788;SDS011;6458;42.710;23.192;2023-12-22T11:26:16;1.60;;;1.60;;
12788;SDS011;6458;42.710;23.192;2023-12-22T11:28:43;2.07;;;2.07;;
12788;SDS011;6458;42.710;23.192;2023-12-22T11:31:12;1.60;;;1.50;;
12788;SDS011;6458;42.710;23.192;2023-12-22T11:33:40;2.13;;;2.03;;
12788;SDS011;6458;42.710;23.192;2023-12-22T11:36:08;1.60;;;1.60;;
12788;SDS011;6458;42.710;23.192;2023-12-22T11:38:36;2.20;;;2.10;;
12788;SDS011;6458;42.710;23.192;2023-12-22T11:41:02;2.13;;;2.03;;
12788;SDS011;6458;42.710;23.192;2023-12-22T11:43:30;2.30;;;2.20;;
12788;SDS011;6458;42.710;23.192;2023-12-22T11:46:00;2.80;;;2.70;;
12788;SDS011;6458;42.710;23.192;2023-12-22T11:48:29;2.90;;;2.80;;
12788;SDS011;6458;42.710;23.192;2023-12-22T11:50:55;2.80;;;2.70;;
12788;SDS011;6458;42.710;23.192;2023-12-22T11:53:22;2.30;;;2.20;;
12788;SDS011;6458;42.710;23.192;2023-12-22T11:55:56;2.50;;;2.30;;
12788;SDS011;6458;42.710;23.192;2023-12-22T11:58:37;2.33;;;2.23;;
12788;SDS011;6458;42.710;23.192;2023-12-22T12:01:05;2.60;;;2.50;;
12788;SDS011;6458;42.710;23.192;2023-12-22T12:03:35;2.10;;;2.07;;
12788;SDS011;6458;42.710;23.192;2023-12-22T12:06:22;2.10;;;2.00;;
12788;SDS011;6458;42.710;23.192;2023-12-22T12:08:55;2.17;;;2.13;;
12788;SDS011;6458;42.710;23.192;2023-12-22T12:11:22;2.27;;;2.10;;
12788;SDS011;6458;42.710;23.192;2023-12-22T12:13:49;2.33;;;2.23;;
12788;SDS011;6458;42.710;23.192;2023-12-22T12:16:18;2.00;;;2.00;;
12788;SDS011;6458;42.710;23.192;2023-12-22T12:18:58;2.03;;;2.03;;
12788;SDS011;6458;42.710;23.192;2023-12-22T12:21:25;1.90;;;1.90;;
12788;SDS011;6458;42.710;23.192;2023-12-22T12:26:41;2.40;;;2.30;;
12788;SDS011;6458;42.710;23.192;2023-12-22T12:29:07;2.10;;;2.00;;
12788;SDS011;6458;42.710;23.192;2023-12-22T12:31:35;2.37;;;2.27;;
12788;SDS011;6458;42.710;23.192;2023-12-22T12:34:12;1.97;;;1.97;;
12788;SDS011;6458;42.710;23.192;2023-12-22T12:36:42;1.97;;;1.93;;
12788;SDS011;6458;42.710;23.192;2023-12-22T12:39:10;2.03;;;1.93;;
12788;SDS011;6458;42.710;23.192;2023-12-22T12:41:41;2.33;;;2.23;;
12788;SDS011;6458;42.710;23.192;2023-12-22T12:44:08;2.73;;;2.53;;
12788;SDS011;6458;42.710;23.192;2023-12-22T12:46:35;6.00;;;3.97;;
12788;SDS011;6458;42.710;23.192;2023-12-22T12:49:04;3.90;;;3.60;;
12788;SDS011;6458;42.710;23.192;2023-12-22T12:51:35;2.73;;;2.60;;
12788;SDS011;6458;42.710;23.192;2023-12-22T12:54:02;2.50;;;2.40;;
12788;SDS011;6458;42.710;23.192;2023-12-22T12:56:29;2.30;;;2.30;;
12788;SDS011;6458;42.710;23.192;2023-12-22T12:58:56;3.27;;;3.00;;
12788;SDS011;6458;42.710;23.192;2023-12-22T13:01:24;2.47;;;2.47;;
12788;SDS011;6458;42.710;23.192;2023-12-22T13:03:51;5.60;;;3.63;;
12788;SDS011;6458;42.710;23.192;2023-12-22T13:06:19;4.63;;;4.23;;
12788;SDS011;6458;42.710;23.192;2023-12-22T13:08:47;3.10;;;2.90;;
12788;SDS011;6458;42.710;23.192;2023-12-22T13:11:14;2.80;;;2.70;;
12788;SDS011;6458;42.710;23.192;2023-12-22T13:13:41;4.80;;;3.27;;
12788;SDS011;6458;42.710;23.192;2023-12-22T13:16:08;2.67;;;2.57;;
12788;SDS011;6458;42.710;23.192;2023-12-22T13:18:35;2.50;;;2.40;;
12788;SDS011;6458;42.710;23.192;2023-12-22T13:21:02;2.73;;;2.53;;
12788;SDS011;6458;42.710;23.192;2023-12-22T13:23:30;2.67;;;2.57;;
12788;SDS011;6458;42.710;23.192;2023-12-22T13:25:57;2.60;;;2.50;;
12788;SDS011;6458;42.710;23.192;2023-12-22T13:28:27;2.80;;;2.60;;
12788;SDS011;6458;42.710;23.192;2023-12-22T13:30:53;3.00;;;2.80;;
12788;SDS011;6458;42.710;23.192;2023-12-22T13:33:20;2.57;;;2.47;;
12788;SDS011;6458;42.710;23.192;2023-12-22T13:35:49;2.67;;;2.57;;
12788;SDS011;6458;42.710;23.192;2023-12-22T13:38:16;2.40;;;2.30;;
12788;SDS011;6458;42.710;23.192;2023-12-22T13:40:45;3.17;;;2.97;;
12788;SDS011;6458;42.710;23.192;2023-12-22T13:43:12;4.10;;;3.80;;
12788;SDS011;6458;42.710;23.192;2023-12-22T13:45:39;3.87;;;3.57;;
12788;SDS011;6458;42.710;23.192;2023-12-22T13:48:06;4.03;;;3.73;;
12788;SDS011;6458;42.710;23.192;2023-12-22T13:50:33;3.13;;;2.93;;
12788;SDS011;6458;42.710;23.192;2023-12-22T13:53:07;3.67;;;3.37;;
12788;SDS011;6458;42.710;23.192;2023-12-22T13:55:34;3.73;;;3.10;;
12788;SDS011;6458;42.710;23.192;2023-12-22T13:58:04;3.63;;;3.37;;
12788;SDS011;6458;42.710;23.192;2023-12-22T14:00:30;3.00;;;2.33;;
12788;SDS011;6458;42.710;23.192;2023-12-22T14:02:57;2.77;;;2.67;;
12788;SDS011;6458;42.710;23.192;2023-12-22T14:05:24;2.47;;;2.37;;
12788;SDS011;6458;42.710;23.192;2023-12-22T14:07:51;2.33;;;2.23;;
12788;SDS011;6458;42.710;23.192;2023-12-22T14:10:18;2.70;;;2.60;;
12788;SDS011;6458;42.710;23.192;2023-12-22T14:12:45;2.87;;;2.70;;
12788;SDS011;6458;42.710;23.192;2023-12-22T14:15:13;2.80;;;2.60;;
12788;SDS011;6458;42.710;23.192;2023-12-22T14:17:40;2.67;;;2.47;;
12788;SDS011;6458;42.710;23.192;2023-12-22T14:20:08;2.60;;;2.50;;
12788;SDS011;6458;42.710;23.192;2023-12-22T14:22:36;2.60;;;2.50;;
12788;SDS011;6458;42.710;23.192;2023-12-22T14:25:03;2.40;;;2.30;;
12788;SDS011;6458;42.710;23.192;2023-12-22T14:27:30;2.87;;;2.63;;
12788;SDS011;6458;42.710;23.192;2023-12-22T14:29:57;3.27;;;3.03;;
12788;SDS011;6458;42.710;23.192;2023-12-22T14:32:25;3.10;;;2.90;;
12788;SDS011;6458;42.710;23.192;2023-12-22T14:34:52;2.73;;;2.63;;
12788;SDS011;6458;42.710;23.192;2023-12-22T14:37:18;3.00;;;2.80;;
12788;SDS011;6458;42.710;23.192;2023-12-22T14:39:46;4.27;;;3.87;;
12788;SDS011;6458;42.710;23.192;2023-12-22T14:42:13;3.33;;;3.07;;
12788;SDS011;6458;42.710;23.192;2023-12-22T14:44:39;3.30;;;3.10;;
12788;SDS011;6458;42.710;23.192;2023-12-22T14:47:06;3.37;;;3.07;;